createdAt,value
2019-04-19T00:01:52.215Z,52.10
2019-04-19T00:04:16.873Z,52.30
2019-04-19T00:06:47.635Z,52.70
2019-04-19T00:09:28.398Z,52.80
2019-04-19T00:11:59.162Z,52.80
2019-04-19T00:14:16.952Z,52.90
2019-04-19T00:16:46.856Z,53.00
2019-04-19T00:19:36.543Z,53.30
2019-04-19T00:22:11.719Z,53.40
2019-04-19T00:24:16.662Z,53.60
2019-04-19T00:26:46.576Z,53.80
2019-04-19T00:29:21.999Z,54.60
2019-04-19T00:32:04.755Z,54.00
2019-04-19T00:34:16.632Z,54.20
2019-04-19T00:36:46.639Z,54.20
2019-04-19T00:39:38.177Z,54.50
2019-04-19T00:42:23.448Z,54.60
2019-04-19T00:44:59.018Z,54.90
2019-04-19T00:47:23.641Z,55.10
2019-04-19T00:49:51.284Z,55.20
2019-04-19T00:52:26.820Z,55.50
2019-04-19T00:54:49.241Z,55.80
2019-04-19T00:57:19.109Z,56.10
2019-04-19T00:59:42.510Z,56.30
2019-04-19T01:02:12.421Z,56.40
2019-04-19T01:04:39.572Z,56.80
2019-04-19T01:07:13.148Z,57.00
2019-04-19T01:09:50.023Z,57.30
2019-04-19T01:12:20.710Z,57.80
2019-04-19T01:14:47.738Z,58.10
2019-04-19T01:17:23.116Z,58.50
2019-04-19T01:19:46.926Z,58.90
2019-04-19T01:22:17.634Z,59.30
2019-04-19T01:24:44.548Z,59.60
2019-04-19T01:27:13.217Z,60.20
2019-04-19T01:29:46.202Z,61.20
2019-04-19T01:32:15.116Z,62.00
2019-04-19T01:34:41.752Z,62.60
2019-04-19T01:37:16.333Z,63.70
2019-04-19T01:40:00.794Z,64.20
2019-04-19T01:42:32.308Z,65.40
2019-04-19T01:45:08.971Z,66.50
2019-04-19T01:47:51.469Z,67.70
2019-04-19T01:50:15.158Z,69.40
2019-04-19T01:53:00.577Z,71.00
2019-04-19T01:55:14.920Z,72.90
2019-04-19T01:57:36.553Z,74.20
2019-04-19T02:00:12.958Z,76.10
2019-04-19T02:02:48.238Z,77.80
2019-04-19T02:05:16.209Z,79.30
2019-04-19T02:07:42.554Z,80.50
2019-04-19T02:10:56.602Z,82.30
2019-04-19T02:13:27.989Z,83.40
2019-04-19T02:15:51.334Z,85.20
2019-04-19T02:18:24.174Z,86.80
2019-04-19T02:20:50.041Z,88.50
2019-04-19T02:23:20.127Z,90.00
2019-04-19T02:25:51.805Z,90.50
2019-04-19T02:28:25.416Z,90.90
2019-04-19T02:31:06.370Z,91.60
2019-04-19T02:33:47.684Z,92.60
2019-04-19T02:36:15.635Z,93.10
2019-04-19T02:38:46.374Z,93.70
2019-04-19T02:43:54.266Z,95.10
2019-04-19T02:48:55.870Z,96.50
2019-04-19T02:51:26.208Z,97.00
2019-04-19T02:53:47.543Z,97.50
2019-04-19T02:59:27.534Z,98.90
2019-04-19T03:02:14.034Z,99.50
2019-04-19T03:04:51.335Z,99.90
2019-04-19T03:06:48.073Z,99.90
2019-04-19T03:09:11.432Z,99.90
2019-04-19T03:11:56.100Z,99.90
2019-04-19T03:14:21.720Z,99.90
2019-04-19T03:16:58.216Z,99.90
2019-04-19T03:19:22.173Z,99.90
2019-04-19T03:21:56.066Z,99.90
2019-04-19T03:24:22.610Z,99.90
2019-04-19T03:26:55.948Z,99.90
2019-04-19T03:29:20.898Z,99.90
2019-04-19T03:32:35.561Z,99.90
2019-04-19T03:36:55.035Z,99.90
2019-04-19T03:39:29.567Z,99.90
2019-04-19T03:42:06.037Z,99.90
2019-04-19T03:44:37.451Z,99.90
2019-04-19T03:47:11.156Z,99.90
2019-04-19T03:49:38.855Z,99.90
2019-04-19T03:54:33.395Z,99.90
2019-04-19T03:57:06.086Z,99.90
2019-04-19T03:59:22.451Z,99.90
2019-04-19T04:01:55.169Z,99.90
2019-04-19T04:04:26.548Z,99.90
2019-04-19T04:06:52.560Z,99.90
2019-04-19T04:09:25.017Z,99.90
2019-04-19T04:12:27.520Z,99.90
2019-04-19T04:15:03.942Z,99.90
2019-04-19T04:17:24.758Z,99.90
2019-04-19T04:19:54.271Z,99.90
2019-04-19T04:22:29.739Z,99.90
2019-04-19T04:25:01.978Z,99.90
2019-04-19T04:27:38.889Z,99.90
2019-04-19T04:30:08.513Z,99.90
2019-04-19T04:32:39.429Z,99.90
2019-04-19T04:35:13.890Z,99.90
2019-04-19T04:37:40.636Z,99.90
2019-04-19T04:39:57.662Z,99.90
2019-04-19T04:42:34.888Z,99.90
2019-04-19T04:47:45.954Z,99.90
2019-04-19T04:50:35.573Z,99.90
2019-04-19T04:52:42.074Z,99.90
2019-04-19T04:55:11.423Z,99.90
2019-04-19T04:57:47.443Z,99.90
2019-04-19T05:00:11.813Z,99.90
2019-04-19T05:02:58.732Z,99.90
2019-04-19T05:05:33.502Z,99.90
2019-04-19T05:08:04.364Z,99.90
2019-04-19T05:10:27.935Z,99.90
2019-04-19T05:15:36.314Z,99.90
2019-04-19T05:18:22.779Z,99.90
2019-04-19T05:20:31.733Z,99.90
2019-04-19T05:23:09.512Z,99.90
2019-04-19T05:28:09.576Z,99.90
2019-04-19T05:30:17.358Z,99.90
2019-04-19T05:32:57.846Z,99.90
2019-04-19T05:35:31.993Z,99.90
2019-04-19T05:38:03.493Z,99.90
2019-04-19T05:40:43.722Z,99.90
2019-04-19T05:43:46.436Z,99.90
2019-04-19T05:46:03.763Z,99.90
2019-04-19T05:48:21.326Z,99.90
2019-04-19T05:50:58.853Z,99.90
2019-04-19T05:53:16.807Z,99.90
2019-04-19T05:55:36.937Z,99.90
2019-04-19T05:58:16.613Z,99.90
2019-04-19T06:00:51.640Z,99.90
2019-04-19T06:03:17.703Z,99.90
2019-04-19T06:06:01.316Z,99.90
2019-04-19T06:08:18.039Z,99.90
2019-04-19T06:10:45.721Z,99.90
2019-04-19T06:13:12.111Z,99.90
2019-04-19T06:16:04.055Z,99.90
2019-04-19T06:18:26.049Z,99.90
2019-04-19T06:21:06.638Z,99.90
2019-04-19T06:23:38.235Z,99.90
2019-04-19T06:26:36.956Z,99.90
2019-04-19T06:28:48.473Z,99.90
2019-04-19T06:31:03.458Z,99.90
2019-04-19T06:33:32.422Z,99.90
2019-04-19T06:35:52.326Z,99.90
2019-04-19T06:38:16.311Z,99.90
2019-04-19T06:40:53.568Z,99.90
2019-04-19T06:43:30.730Z,99.90
2019-04-19T06:46:02.634Z,99.90
2019-04-19T06:48:20.550Z,99.90
2019-04-19T06:50:52.337Z,99.90
2019-04-19T06:53:16.924Z,99.90
2019-04-19T06:55:49.835Z,99.90
2019-04-19T06:58:23.780Z,99.90
2019-04-19T07:01:02.310Z,99.90
2019-04-19T07:03:17.674Z,99.90
2019-04-19T07:06:06.435Z,99.90
2019-04-19T07:08:59.431Z,99.90
2019-04-19T07:11:19.854Z,99.90
2019-04-19T07:13:32.330Z,99.90
2019-04-19T07:16:13.119Z,99.90
2019-04-19T07:18:33.830Z,99.90
2019-04-19T07:21:07.804Z,99.90
2019-04-19T07:23:42.342Z,99.90
2019-04-19T07:26:13.329Z,99.90
2019-04-19T07:28:23.997Z,99.90
2019-04-19T07:30:58.383Z,99.90
2019-04-19T07:33:31.481Z,99.90
2019-04-19T07:36:14.619Z,99.60
2019-04-19T07:38:39.883Z,98.90
2019-04-19T07:41:10.026Z,97.30
2019-04-19T07:43:51.300Z,95.90
2019-04-19T07:46:31.053Z,95.60
2019-04-19T07:48:43.231Z,95.20
2019-04-19T07:51:19.893Z,92.90
2019-04-19T07:56:21.601Z,92.20
2019-04-19T07:59:07.387Z,92.60
2019-04-19T08:01:48.517Z,93.10
2019-04-19T08:09:12.840Z,90.30
2019-04-19T08:11:55.692Z,88.30
2019-04-19T08:17:24.418Z,88.00
2019-04-19T08:28:56.709Z,75.70
2019-04-19T08:31:17.666Z,73.80
2019-04-19T08:33:47.157Z,75.20
2019-04-19T08:36:24.114Z,74.40
2019-04-19T08:39:07.534Z,74.20
2019-04-19T08:41:25.512Z,72.20
2019-04-19T08:44:05.056Z,71.00
2019-04-19T08:46:19.736Z,69.30
2019-04-19T08:48:55.483Z,66.30
2019-04-19T08:51:28.612Z,65.20
2019-04-19T08:54:14.784Z,64.70
2019-04-19T08:56:32.498Z,65.50
2019-04-19T08:59:19.885Z,64.40
2019-04-19T09:01:47.482Z,64.70
2019-04-19T09:04:17.149Z,64.80
2019-04-19T09:07:24.176Z,63.90
2019-04-19T09:09:11.920Z,65.60
2019-04-19T09:11:41.066Z,65.00
2019-04-19T09:14:13.526Z,66.60
2019-04-19T09:16:53.577Z,60.10
2019-04-19T09:19:20.276Z,61.10
2019-04-19T09:21:39.246Z,63.00
2019-04-19T09:24:02.920Z,61.00
2019-04-19T09:26:51.162Z,64.90
2019-04-19T09:29:32.398Z,60.90
2019-04-19T09:31:45.407Z,60.80
2019-04-19T09:34:11.913Z,58.10
2019-04-19T09:36:43.482Z,58.10
2019-04-19T09:39:22.389Z,57.60
2019-04-19T09:41:45.276Z,58.00
2019-04-19T09:44:16.924Z,56.40
2019-04-19T09:46:38.933Z,57.00
2019-04-19T09:49:19.192Z,56.30
2019-04-19T09:51:50.914Z,56.30
2019-04-19T09:54:33.635Z,54.60
2019-04-19T09:56:53.343Z,62.10
2019-04-19T09:59:17.484Z,56.30
2019-04-19T10:01:44.507Z,57.00
2019-04-19T10:04:10.825Z,54.70
2019-04-19T10:06:40.585Z,54.00
2019-04-19T10:09:16.362Z,47.20
2019-04-19T10:11:41.357Z,47.60
2019-04-19T10:14:12.871Z,44.80
2019-04-19T10:16:42.311Z,45.70
2019-04-19T10:19:11.545Z,42.70
2019-04-19T10:21:43.689Z,41.30
2019-04-19T10:24:16.223Z,41.70
2019-04-19T10:26:48.359Z,37.00
2019-04-19T10:29:25.412Z,37.10
2019-04-19T10:31:51.572Z,40.10
2019-04-19T10:34:19.074Z,34.20
2019-04-19T10:36:50.633Z,34.80
2019-04-19T10:39:21.921Z,33.70
2019-04-19T10:41:50.590Z,35.20
2019-04-19T10:44:22.268Z,33.00
2019-04-19T10:46:49.533Z,35.50
2019-04-19T10:49:26.306Z,32.40
2019-04-19T10:52:00.519Z,30.90
2019-04-19T10:54:29.214Z,30.00
2019-04-19T10:57:02.200Z,29.40
2019-04-19T10:59:32.181Z,28.60
2019-04-19T11:02:02.110Z,29.60
2019-04-19T11:04:31.110Z,28.70
2019-04-19T11:07:01.060Z,27.40
2019-04-19T11:09:29.543Z,28.00
2019-04-19T11:11:58.138Z,26.90
2019-04-19T11:14:28.239Z,25.00
2019-04-19T11:16:57.700Z,23.90
2019-04-19T11:19:43.144Z,23.80
2019-04-19T11:21:56.854Z,24.30
2019-04-19T11:24:25.638Z,24.20
2019-04-19T11:26:55.062Z,23.70
2019-04-19T11:29:24.086Z,22.80
2019-04-19T11:32:10.636Z,22.30
2019-04-19T11:34:40.926Z,21.90
2019-04-19T11:37:12.384Z,20.40
2019-04-19T11:39:41.360Z,20.70
2019-04-19T11:42:10.299Z,20.40
2019-04-19T11:44:39.478Z,20.00
2019-04-19T11:47:08.986Z,19.30
2019-04-19T11:49:40.914Z,20.60
2019-04-19T11:52:11.244Z,19.70
2019-04-19T11:54:39.675Z,19.40
2019-04-19T11:57:10.853Z,19.00
2019-04-19T11:59:48.840Z,19.90
2019-04-19T12:02:23.985Z,19.90
2019-04-19T12:04:52.531Z,20.50
2019-04-19T12:07:21.310Z,18.50
2019-04-19T12:09:50.309Z,18.00
2019-04-19T12:12:19.280Z,18.40
2019-04-19T12:14:48.636Z,18.10
2019-04-19T12:17:18.432Z,18.40
2019-04-19T12:19:53.834Z,18.50
2019-04-19T12:22:17.651Z,18.90
2019-04-19T12:24:46.956Z,18.80
2019-04-19T12:27:17.855Z,18.00
2019-04-19T12:29:49.586Z,18.20
2019-04-19T12:32:17.297Z,18.40
2019-04-19T12:34:47.219Z,18.90
2019-04-19T12:37:17.295Z,18.30
2019-04-19T12:39:46.024Z,18.90
2019-04-19T12:42:28.286Z,18.20
2019-04-19T12:44:57.582Z,18.30
2019-04-19T12:47:26.907Z,19.40
2019-04-19T12:50:01.095Z,20.80
2019-04-19T12:52:26.294Z,21.10
2019-04-19T12:54:56.231Z,21.80
2019-04-19T12:57:27.799Z,21.70
2019-04-19T12:59:58.027Z,22.30
2019-04-19T13:02:29.554Z,22.70
2019-04-19T13:05:06.531Z,23.00
2019-04-19T13:07:36.413Z,22.70
2019-04-19T13:10:05.324Z,23.70
2019-04-19T13:12:34.853Z,22.80
2019-04-19T13:15:04.115Z,22.70
2019-04-19T13:17:33.835Z,23.60
2019-04-19T13:20:10.925Z,22.40
2019-04-19T13:22:32.783Z,22.20
2019-04-19T13:25:01.667Z,20.60
2019-04-19T13:27:40.403Z,20.10
2019-04-19T13:30:10.604Z,20.50
2019-04-19T13:32:31.424Z,20.40
2019-04-19T13:35:01.207Z,20.70
2019-04-19T13:37:34.337Z,20.40
2019-04-19T13:40:04.591Z,20.90
2019-04-19T13:42:35.048Z,20.70
2019-04-19T13:45:14.009Z,20.30
2019-04-19T13:47:36.503Z,19.90
2019-04-19T13:50:17.862Z,20.10
2019-04-19T13:52:38.683Z,20.00
2019-04-19T13:55:08.685Z,20.60
2019-04-19T13:57:37.715Z,21.30
2019-04-19T14:00:11.702Z,21.90
2019-04-19T14:02:41.158Z,23.40
2019-04-19T14:05:11.436Z,23.00
2019-04-19T14:07:41.141Z,23.10
2019-04-19T14:10:10.068Z,21.90
2019-04-19T14:12:38.909Z,21.70
2019-04-19T14:15:08.832Z,22.90
2019-04-19T14:17:37.932Z,22.60
2019-04-19T14:20:10.509Z,22.80
2019-04-19T14:22:39.476Z,22.80
2019-04-19T14:25:09.549Z,22.90
2019-04-19T14:27:39.480Z,23.00
2019-04-19T14:30:09.048Z,23.70
2019-04-19T14:32:39.049Z,23.30
2019-04-19T14:35:08.435Z,23.70
2019-04-19T14:37:38.227Z,24.20
2019-04-19T14:40:10.186Z,24.00
2019-04-19T14:42:38.860Z,24.30
2019-04-19T14:45:10.003Z,24.40
2019-04-19T14:47:39.109Z,25.00
2019-04-19T14:50:10.583Z,25.50
2019-04-19T14:52:40.075Z,24.60
2019-04-19T14:55:10.021Z,24.50
2019-04-19T14:57:38.791Z,24.60
2019-04-19T15:00:09.943Z,24.40
2019-04-19T15:02:40.826Z,24.20
2019-04-19T15:05:11.873Z,25.20
2019-04-19T15:07:40.904Z,24.50
2019-04-19T15:10:09.787Z,24.00
2019-04-19T15:12:38.616Z,24.50
2019-04-19T15:15:10.254Z,24.60
2019-04-19T15:17:38.912Z,25.10
2019-04-19T15:20:13.859Z,25.50
2019-04-19T15:22:42.617Z,25.20
2019-04-19T15:25:12.888Z,26.50
2019-04-19T15:27:41.576Z,25.30
2019-04-19T15:30:12.992Z,24.90
2019-04-19T15:32:42.450Z,25.70
2019-04-19T15:35:13.813Z,25.30
2019-04-19T15:37:43.467Z,25.00
2019-04-19T15:40:16.044Z,25.10
2019-04-19T15:42:45.155Z,25.20
2019-04-19T15:45:14.429Z,26.20
2019-04-19T15:47:44.493Z,25.40
2019-04-19T15:50:15.934Z,24.90
2019-04-19T15:52:44.683Z,25.40
2019-04-19T15:55:14.293Z,25.40
2019-04-19T15:57:43.921Z,25.20
2019-04-19T16:00:20.281Z,25.80
2019-04-19T16:02:56.439Z,25.50
2019-04-19T16:05:28.274Z,25.30
2019-04-19T16:08:06.516Z,25.90
2019-04-19T16:10:48.898Z,25.80
2019-04-19T16:13:18.040Z,26.30
2019-04-19T16:15:47.779Z,26.80
2019-04-19T16:18:16.427Z,26.50
2019-04-19T16:20:47.224Z,27.00
2019-04-19T16:23:16.253Z,26.40
2019-04-19T16:25:47.589Z,26.40
2019-04-19T16:28:15.225Z,26.80
2019-04-19T16:30:44.175Z,26.90
2019-04-19T16:33:13.541Z,27.30
2019-04-19T16:35:42.492Z,27.20
2019-04-19T16:38:11.988Z,27.70
2019-04-19T16:40:40.857Z,27.40
2019-04-19T16:43:09.415Z,27.80
2019-04-19T16:45:38.074Z,27.90
2019-04-19T16:48:07.753Z,27.40
2019-04-19T16:50:36.727Z,28.00
2019-04-19T16:53:06.904Z,28.60
2019-04-19T16:55:35.907Z,28.60
2019-04-19T16:58:06.196Z,28.80
2019-04-19T17:00:44.847Z,28.40
2019-04-19T17:03:14.301Z,28.40
2019-04-19T17:05:44.434Z,28.40
2019-04-19T17:08:13.647Z,28.70
2019-04-19T17:10:42.848Z,28.60
2019-04-19T17:13:12.820Z,29.00
2019-04-19T17:15:52.926Z,29.50
2019-04-19T17:18:28.536Z,29.50
2019-04-19T17:20:59.620Z,28.80
2019-04-19T17:23:28.670Z,28.70
2019-04-19T17:25:57.288Z,28.70
2019-04-19T17:28:25.764Z,29.50
2019-04-19T17:30:54.362Z,29.50
2019-04-19T17:33:24.224Z,29.50
2019-04-19T17:35:54.019Z,29.50
2019-04-19T17:38:29.990Z,29.60
2019-04-19T17:40:54.571Z,30.00
2019-04-19T17:43:23.532Z,30.30
2019-04-19T17:45:52.563Z,30.80
2019-04-19T17:48:22.721Z,30.70
2019-04-19T17:50:51.573Z,30.50
2019-04-19T17:53:20.600Z,30.80
2019-04-19T17:55:51.935Z,31.20
2019-04-19T17:58:19.479Z,31.80
2019-04-19T18:00:48.979Z,31.80
2019-04-19T18:03:20.273Z,32.30
2019-04-19T18:05:49.845Z,33.00
2019-04-19T18:08:24.495Z,33.30
2019-04-19T18:10:53.556Z,33.60
2019-04-19T18:13:19.518Z,33.80
2019-04-19T18:15:48.820Z,33.90
2019-04-19T18:18:17.471Z,34.00
2019-04-19T18:20:50.944Z,34.80
2019-04-19T18:23:30.143Z,35.00
2019-04-19T18:25:47.185Z,35.60
2019-04-19T18:28:18.348Z,35.50
2019-04-19T18:30:51.969Z,35.60
2019-04-19T18:33:20.137Z,36.10
2019-04-19T18:35:52.243Z,36.60
2019-04-19T18:38:22.534Z,36.70
2019-04-19T18:40:49.319Z,36.80
2019-04-19T18:43:30.156Z,37.10
2019-04-19T18:45:48.106Z,37.40
2019-04-19T18:48:17.664Z,37.70
2019-04-19T18:50:49.368Z,37.70
2019-04-19T18:53:25.984Z,38.50
2019-04-19T18:55:49.081Z,37.90
2019-04-19T18:58:22.228Z,38.40
2019-04-19T19:00:50.195Z,38.50
2019-04-19T19:03:17.768Z,38.70
2019-04-19T19:05:51.659Z,39.00
2019-04-19T19:08:24.154Z,39.20
2019-04-19T19:10:50.426Z,39.50
2019-04-19T19:13:24.482Z,39.80
2019-04-19T19:15:51.658Z,40.00
2019-04-19T19:18:17.499Z,40.20
2019-04-19T19:20:50.787Z,40.30
2019-04-19T19:23:32.791Z,40.40
2019-04-19T19:26:01.357Z,40.50
2019-04-19T19:28:20.084Z,40.70
2019-04-19T19:30:49.037Z,40.80
2019-04-19T19:33:20.499Z,40.80
2019-04-19T19:35:54.838Z,41.10
2019-04-19T19:38:24.194Z,41.00
2019-04-19T19:40:59.935Z,41.10
2019-04-19T19:43:35.754Z,41.00
2019-04-19T19:46:09.607Z,41.40
2019-04-19T19:48:49.787Z,41.50
2019-04-19T19:51:08.868Z,41.40
2019-04-19T19:53:54.960Z,41.40
2019-04-19T19:56:30.338Z,41.70
2019-04-19T19:58:29.852Z,41.80
2019-04-19T20:01:09.661Z,41.70
2019-04-19T20:03:28.979Z,41.60
2019-04-19T20:05:55.724Z,41.40
2019-04-19T20:08:32.176Z,41.40
2019-04-19T20:10:53.464Z,41.60
2019-04-19T20:13:27.460Z,41.70
2019-04-19T20:15:54.599Z,41.90
2019-04-19T20:18:30.946Z,42.10
2019-04-19T20:20:54.503Z,42.50
2019-04-19T20:23:29.208Z,42.40
2019-04-19T20:26:04.465Z,42.40
2019-04-19T20:28:28.549Z,42.70
2019-04-19T20:30:54.889Z,42.50
2019-04-19T20:33:26.367Z,42.50
2019-04-19T20:35:59.258Z,42.20
2019-04-19T20:38:26.629Z,42.80
2019-04-19T20:40:58.796Z,42.30
2019-04-19T20:43:40.145Z,42.70
2019-04-19T20:46:01.111Z,42.70
2019-04-19T20:48:28.312Z,43.10
2019-04-19T20:51:07.484Z,43.00
2019-04-19T20:53:35.717Z,43.20
2019-04-19T20:58:40.514Z,43.30
2019-04-19T21:01:02.925Z,43.60
2019-04-19T21:03:35.913Z,43.60
2019-04-19T21:06:01.995Z,43.70
2019-04-19T21:08:34.022Z,44.00
2019-04-19T21:11:04.083Z,44.70
2019-04-19T21:13:31.450Z,43.80
2019-04-19T21:16:00.330Z,43.90
2019-04-19T21:18:30.405Z,44.00
2019-04-19T21:21:03.576Z,44.20
2019-04-19T21:23:32.269Z,44.20
2019-04-19T21:26:02.371Z,43.90
2019-04-19T21:28:39.838Z,44.30
2019-04-19T21:31:04.190Z,44.50
2019-04-19T21:33:30.880Z,44.50
2019-04-19T21:36:05.748Z,44.60
2019-04-19T21:38:30.261Z,44.40
2019-04-19T21:41:04.190Z,44.50
2019-04-19T21:43:32.365Z,44.50
2019-04-19T21:45:59.591Z,44.70
2019-04-19T21:48:33.141Z,44.90
2019-04-19T21:50:59.746Z,44.90
2019-04-19T21:53:29.904Z,45.10
2019-04-19T21:56:03.178Z,45.10
2019-04-19T21:58:29.868Z,45.30
2019-04-19T22:01:07.865Z,45.30
2019-04-19T22:03:32.782Z,45.60
2019-04-19T22:06:09.119Z,45.70
2019-04-19T22:08:36.976Z,45.70
2019-04-19T22:11:02.722Z,45.80
2019-04-19T22:13:37.805Z,45.80
2019-04-19T22:16:03.989Z,45.90
2019-04-19T22:18:39.691Z,46.10
2019-04-19T22:21:06.304Z,46.00
2019-04-19T22:23:36.133Z,46.10
2019-04-19T22:26:14.480Z,45.90
2019-04-19T22:28:33.448Z,46.10
2019-04-19T22:31:04.451Z,46.30
2019-04-19T22:33:32.452Z,46.20
2019-04-19T22:36:05.297Z,46.00
2019-04-19T22:38:31.834Z,46.20
2019-04-19T22:41:05.936Z,46.20
2019-04-19T22:43:31.039Z,46.50
2019-04-19T22:46:04.740Z,46.60
2019-04-19T22:48:31.383Z,46.60
2019-04-19T22:51:07.510Z,46.60
2019-04-19T22:53:37.283Z,46.60
2019-04-19T22:56:14.089Z,46.80
2019-04-19T22:58:33.410Z,46.80
2019-04-19T23:01:03.153Z,46.90
2019-04-19T23:03:41.845Z,47.30
2019-04-19T23:06:13.469Z,47.10
2019-04-19T23:08:43.304Z,47.00
2019-04-19T23:11:12.771Z,47.20
2019-04-19T23:13:43.318Z,47.30
2019-04-19T23:16:13.588Z,47.50
2019-04-19T23:18:48.117Z,47.50
2019-04-19T23:21:17.757Z,47.50
2019-04-19T23:23:43.014Z,47.50
2019-04-19T23:26:22.349Z,47.50
2019-04-19T23:28:43.260Z,47.70
2019-04-19T23:31:14.008Z,47.50
2019-04-19T23:33:52.251Z,47.90
2019-04-19T23:36:18.930Z,47.80
2019-04-19T23:38:43.332Z,48.00
2019-04-19T23:41:13.101Z,47.90
2019-04-19T23:43:43.974Z,48.10
2019-04-19T23:46:18.681Z,48.10
2019-04-19T23:48:42.676Z,48.30
2019-04-19T23:51:14.676Z,48.30
2019-04-19T23:53:44.671Z,48.40
2019-04-19T23:56:23.757Z,48.40
2019-04-19T23:58:42.657Z,48.40
